Time;durP1;ratioP1;P1;durP2;ratioP2;P2;SDS_P1;SDS_P2;PMS_P1;PMS_P2;Temp;Humidity;BMP_temperature;BMP_pressure;BME280_temperature;BME280_humidity;BME280_pressure;Samples;Min_cycle;Max_cycle;Signal;HPM_P1;HPM_P2
2022/06/18 00:02:12;;;;;;;4.40;3.90;;;;;;;;;;5134216;28;20473;-67
2022/06/18 00:04:39;;;;;;;5.47;3.70;;;;;;;;;;5134117;28;20521;-67
2022/06/18 00:07:07;;;;;;;4.33;3.83;;;;;;;;;;5133838;28;20460;-67
2022/06/18 00:09:36;;;;;;;4.67;3.73;;;;;;;;;;5133769;28;20480;-67
2022/06/18 00:14:54;;;;;;;4.67;3.90;;;;;;;;;;5133907;28;20411;-67
2022/06/18 00:17:21;;;;;;;4.20;3.73;;;;;;;;;;5134139;28;20540;-67
2022/06/18 00:19:50;;;;;;;4.70;4.30;;;;;;;;;;5135891;27;20875;-67
2022/06/18 00:22:18;;;;;;;5.03;4.27;;;;;;;;;;5137885;27;20447;-68
2022/06/18 00:24:46;;;;;;;7.83;3.90;;;;;;;;;;5137446;27;20445;-67
2022/06/18 00:27:13;;;;;;;5.87;4.70;;;;;;;;;;5137825;27;20521;-67
2022/06/18 00:29:41;;;;;;;4.10;3.70;;;;;;;;;;5137694;27;20524;-67
2022/06/18 00:32:10;;;;;;;4.60;4.10;;;;;;;;;;5137646;27;20525;-67
2022/06/18 00:34:38;;;;;;;4.10;3.40;;;;;;;;;;5137575;27;20866;-65
2022/06/18 00:37:05;;;;;;;6.53;3.63;;;;;;;;;;5137642;27;20494;-67
2022/06/18 00:39:33;;;;;;;3.57;3.27;;;;;;;;;;5137113;27;20469;-67
2022/06/18 00:42:04;;;;;;;4.10;3.70;;;;;;;;;;5137494;27;20532;-67
2022/06/18 00:44:35;;;;;;;4.50;4.10;;;;;;;;;;5137182;27;20552;-67
2022/06/18 00:47:23;;;;;;;4.17;3.77;;;;;;;;;;5138275;27;20477;-68
2022/06/18 00:49:55;;;;;;;5.70;3.90;;;;;;;;;;5137002;27;20556;-67
2022/06/18 00:52:24;;;;;;;4.60;4.20;;;;;;;;;;5137113;27;20934;-68
2022/06/18 00:54:56;;;;;;;3.60;3.33;;;;;;;;;;5137183;27;20449;-68
2022/06/18 00:57:31;;;;;;;4.93;4.20;;;;;;;;;;5137018;27;20520;-67
2022/06/18 01:00:02;;;;;;;5.07;4.03;;;;;;;;;;5136772;27;20497;-68
2022/06/18 01:02:34;;;;;;;4.43;4.03;;;;;;;;;;5136896;27;20429;-68
2022/06/18 01:05:01;;;;;;;4.30;4.00;;;;;;;;;;5136773;27;20518;-68
2022/06/18 01:07:30;;;;;;;5.47;4.27;;;;;;;;;;5137115;27;20437;-69
2022/06/18 01:09:57;;;;;;;4.63;3.93;;;;;;;;;;5137346;27;20509;-67
2022/06/18 01:12:25;;;;;;;3.57;3.27;;;;;;;;;;5137021;27;20470;-67
2022/06/18 01:14:54;;;;;;;4.13;3.83;;;;;;;;;;5136837;27;20441;-68
2022/06/18 01:17:22;;;;;;;5.27;3.63;;;;;;;;;;5136613;27;20452;-66
2022/06/18 01:19:51;;;;;;;4.97;3.90;;;;;;;;;;5136745;27;20480;-67
2022/06/18 01:22:25;;;;;;;5.80;4.00;;;;;;;;;;5136678;27;20536;-66
2022/06/18 01:24:53;;;;;;;4.83;4.33;;;;;;;;;;5137462;27;20430;-67
2022/06/18 01:27:21;;;;;;;6.53;3.90;;;;;;;;;;5136574;27;20758;-66
2022/06/18 01:29:48;;;;;;;8.33;3.90;;;;;;;;;;5136254;27;20521;-67
2022/06/18 01:32:16;;;;;;;5.70;3.90;;;;;;;;;;5135534;27;20444;-66
2022/06/18 01:34:44;;;;;;;5.30;4.00;;;;;;;;;;5136220;27;20926;-67
2022/06/18 01:37:11;;;;;;;7.63;4.07;;;;;;;;;;5136377;27;20441;-66
2022/06/18 01:39:41;;;;;;;7.10;4.30;;;;;;;;;;5136394;27;20478;-67
2022/06/18 01:42:11;;;;;;;4.70;4.17;;;;;;;;;;5136243;27;20440;-67
2022/06/18 01:44:41;;;;;;;8.63;4.17;;;;;;;;;;5136864;27;20458;-67
2022/06/18 01:47:11;;;;;;;4.63;4.03;;;;;;;;;;5136121;27;20442;-67
2022/06/18 01:49:40;;;;;;;5.40;4.13;;;;;;;;;;5136134;27;20496;-67
2022/06/18 01:52:08;;;;;;;5.30;3.83;;;;;;;;;;5135789;27;20455;-67
2022/06/18 01:54:40;;;;;;;5.27;4.77;;;;;;;;;;5136280;27;20437;-67
2022/06/18 01:57:11;;;;;;;5.03;3.67;;;;;;;;;;5136213;27;20849;-66
2022/06/18 01:59:43;;;;;;;5.47;3.53;;;;;;;;;;5136538;27;20504;-67
2022/06/18 02:02:10;;;;;;;5.87;4.20;;;;;;;;;;5136191;27;20434;-68
2022/06/18 02:04:37;;;;;;;7.37;4.23;;;;;;;;;;5135914;27;20440;-67
2022/06/18 02:07:06;;;;;;;5.20;3.90;;;;;;;;;;5135487;27;20464;-67
2022/06/18 02:09:37;;;;;;;5.23;4.70;;;;;;;;;;5135544;27;20532;-67
2022/06/18 02:12:06;;;;;;;4.80;4.40;;;;;;;;;;5135986;27;20422;-67
2022/06/18 02:14:33;;;;;;;5.37;4.70;;;;;;;;;;5135408;27;20480;-68
2022/06/18 02:17:04;;;;;;;5.70;4.40;;;;;;;;;;5135332;27;20453;-67
2022/06/18 02:19:31;;;;;;;4.73;4.27;;;;;;;;;;5135982;27;20468;-67
2022/06/18 02:21:59;;;;;;;7.50;4.50;;;;;;;;;;5135756;27;20527;-67
2022/06/18 02:24:26;;;;;;;7.70;4.50;;;;;;;;;;5135559;27;20944;-67
2022/06/18 02:26:54;;;;;;;5.37;4.40;;;;;;;;;;5135422;27;20853;-67
2022/06/18 02:29:23;;;;;;;4.37;4.00;;;;;;;;;;5135497;27;20527;-67
2022/06/18 02:31:52;;;;;;;7.53;4.07;;;;;;;;;;5134998;27;20820;-67
2022/06/18 02:34:22;;;;;;;5.33;3.80;;;;;;;;;;5135062;27;20930;-66
2022/06/18 02:36:49;;;;;;;4.87;4.37;;;;;;;;;;5135047;27;21010;-67
2022/06/18 02:39:22;;;;;;;5.20;4.70;;;;;;;;;;5134922;27;21094;-67
2022/06/18 02:41:50;;;;;;;10.07;4.13;;;;;;;;;;5135095;27;20461;-67
2022/06/18 02:44:17;;;;;;;6.07;5.27;;;;;;;;;;5135741;27;20517;-67
2022/06/18 02:46:44;;;;;;;5.60;4.47;;;;;;;;;;5135578;27;20445;-67
2022/06/18 02:49:13;;;;;;;9.20;4.40;;;;;;;;;;5134836;27;20536;-67
2022/06/18 02:51:42;;;;;;;5.30;4.30;;;;;;;;;;5134995;27;20490;-67
2022/06/18 02:54:11;;;;;;;7.47;5.27;;;;;;;;;;5135039;27;20803;-66
2022/06/18 02:56:38;;;;;;;5.13;4.47;;;;;;;;;;5134909;27;20865;-66
2022/06/18 02:59:06;;;;;;;5.30;4.80;;;;;;;;;;5134856;27;20480;-66
2022/06/18 03:01:34;;;;;;;4.60;4.20;;;;;;;;;;5135110;27;20528;-66
2022/06/18 03:04:03;;;;;;;5.90;4.67;;;;;;;;;;5134885;27;20451;-66
2022/06/18 03:06:30;;;;;;;6.17;5.07;;;;;;;;;;5134762;27;20443;-67
2022/06/18 03:08:59;;;;;;;5.03;4.57;;;;;;;;;;5134496;27;20528;-66
2022/06/18 03:14:13;;;;;;;6.70;4.50;;;;;;;;;;5134671;27;20777;-66
2022/06/18 03:16:41;;;;;;;5.30;4.60;;;;;;;;;;5134926;27;20796;-67
2022/06/18 03:19:08;;;;;;;4.70;4.20;;;;;;;;;;5134241;27;20566;-66
2022/06/18 03:21:37;;;;;;;6.33;4.83;;;;;;;;;;5135066;27;20936;-65
2022/06/18 03:24:06;;;;;;;7.00;4.70;;;;;;;;;;5134970;28;20863;-67
2022/06/18 03:26:35;;;;;;;4.57;4.17;;;;;;;;;;5134737;28;20874;-67
2022/06/18 03:29:02;;;;;;;4.57;4.17;;;;;;;;;;5134511;28;20448;-67
2022/06/18 03:31:30;;;;;;;4.70;4.10;;;;;;;;;;5134557;28;20872;-67
2022/06/18 03:33:57;;;;;;;6.40;3.90;;;;;;;;;;5134177;28;20459;-66
2022/06/18 03:36:25;;;;;;;4.10;3.80;;;;;;;;;;5134474;28;20447;-66
2022/06/18 03:38:52;;;;;;;5.90;4.63;;;;;;;;;;5134334;28;20445;-68
2022/06/18 03:41:22;;;;;;;4.90;4.40;;;;;;;;;;5134444;28;20536;-67
2022/06/18 03:43:52;;;;;;;46.67;5.83;;;;;;;;;;5134442;28;20455;-67
2022/06/18 03:46:19;;;;;;;4.90;4.50;;;;;;;;;;5134014;28;20454;-67
2022/06/18 03:48:48;;;;;;;6.17;4.10;;;;;;;;;;5133913;28;20530;-67
2022/06/18 03:51:16;;;;;;;5.40;4.90;;;;;;;;;;5135061;27;20549;-67
2022/06/18 03:53:43;;;;;;;4.63;4.10;;;;;;;;;;5134536;27;20922;-68
2022/06/18 03:56:11;;;;;;;8.70;4.60;;;;;;;;;;5139009;27;20516;-67
2022/06/18 03:58:40;;;;;;;5.40;4.90;;;;;;;;;;5138289;27;20515;-67
2022/06/18 04:01:08;;;;;;;6.23;4.60;;;;;;;;;;5138268;27;20575;-68
2022/06/18 04:03:35;;;;;;;4.10;3.80;;;;;;;;;;5136814;27;20468;-68
2022/06/18 04:06:02;;;;;;;7.07;4.53;;;;;;;;;;5136866;27;20440;-68
2022/06/18 04:08:29;;;;;;;6.13;4.90;;;;;;;;;;5136750;27;20509;-67
2022/06/18 04:10:58;;;;;;;5.43;4.73;;;;;;;;;;5137051;27;20476;-67
2022/06/18 04:13:28;;;;;;;9.50;4.73;;;;;;;;;;5137153;27;20849;-68
2022/06/18 04:15:56;;;;;;;4.93;4.40;;;;;;;;;;5136993;27;20449;-67
2022/06/18 04:18:24;;;;;;;4.73;4.33;;;;;;;;;;5137329;27;20516;-67
2022/06/18 04:20:51;;;;;;;5.60;4.40;;;;;;;;;;5137376;27;20473;-67
2022/06/18 04:23:18;;;;;;;4.57;4.13;;;;;;;;;;5137035;27;20532;-67
2022/06/18 04:25:46;;;;;;;5.33;4.83;;;;;;;;;;5137695;27;20440;-67
2022/06/18 04:28:14;;;;;;;12.13;4.27;;;;;;;;;;5137668;27;20791;-67
2022/06/18 04:30:41;;;;;;;7.23;4.40;;;;;;;;;;5137365;27;20488;-68
2022/06/18 04:33:10;;;;;;;5.67;4.50;;;;;;;;;;5137334;27;20522;-67
2022/06/18 04:35:38;;;;;;;5.57;4.40;;;;;;;;;;5137386;27;20481;-67
2022/06/18 04:38:06;;;;;;;5.03;4.40;;;;;;;;;;5137479;27;20434;-67
2022/06/18 04:40:34;;;;;;;6.40;4.30;;;;;;;;;;5137005;27;20819;-67
2022/06/18 04:43:02;;;;;;;5.37;4.53;;;;;;;;;;5136878;27;20839;-68
2022/06/18 04:45:30;;;;;;;9.90;5.50;;;;;;;;;;5137191;27;20466;-68
2022/06/18 04:47:57;;;;;;;5.17;4.67;;;;;;;;;;5137300;27;20457;-67
2022/06/18 04:50:27;;;;;;;5.83;4.17;;;;;;;;;;5137540;27;20501;-68
2022/06/18 04:52:55;;;;;;;7.17;4.60;;;;;;;;;;5137024;27;20430;-68
2022/06/18 04:55:22;;;;;;;9.70;4.70;;;;;;;;;;5136743;27;20454;-67
2022/06/18 04:57:49;;;;;;;5.80;4.90;;;;;;;;;;5136750;27;20434;-67
2022/06/18 05:00:17;;;;;;;7.03;4.20;;;;;;;;;;5136630;27;20804;-68
2022/06/18 05:02:44;;;;;;;4.93;4.53;;;;;;;;;;5136301;27;20443;-68
2022/06/18 05:05:13;;;;;;;5.20;4.33;;;;;;;;;;5135623;27;20516;-68
2022/06/18 05:07:41;;;;;;;9.30;5.20;;;;;;;;;;5136236;27;20879;-68
2022/06/18 05:10:09;;;;;;;6.70;4.20;;;;;;;;;;5136566;27;20968;-69
2022/06/18 05:12:37;;;;;;;8.67;5.40;;;;;;;;;;5136856;27;20440;-68
2022/06/18 05:15:05;;;;;;;5.73;4.70;;;;;;;;;;5136722;27;20541;-68
2022/06/18 05:17:33;;;;;;;6.30;4.87;;;;;;;;;;5136406;27;20533;-68
2022/06/18 05:20:02;;;;;;;6.73;4.50;;;;;;;;;;5136199;27;20514;-68
2022/06/18 05:22:29;;;;;;;5.90;4.73;;;;;;;;;;5136229;27;20446;-68
2022/06/18 05:24:58;;;;;;;7.43;4.43;;;;;;;;;;5136129;27;20438;-68
2022/06/18 05:27:27;;;;;;;7.73;5.23;;;;;;;;;;5136651;27;20533;-68
2022/06/18 05:29:54;;;;;;;7.63;5.07;;;;;;;;;;5136157;27;20932;-68
2022/06/18 05:32:21;;;;;;;7.43;5.20;;;;;;;;;;5136282;27;20526;-68
2022/06/18 05:34:48;;;;;;;7.20;4.57;;;;;;;;;;5136496;27;20521;-68
2022/06/18 05:37:17;;;;;;;7.27;4.83;;;;;;;;;;5136517;27;20443;-72
2022/06/18 05:39:44;;;;;;;8.63;4.77;;;;;;;;;;5136445;27;20530;-65
2022/06/18 05:42:13;;;;;;;9.60;4.93;;;;;;;;;;5136533;27;20527;-65
2022/06/18 05:44:40;;;;;;;7.23;5.27;;;;;;;;;;5136235;27;20525;-64
2022/06/18 05:47:13;;;;;;;9.50;4.90;;;;;;;;;;5136245;27;20566;-65
2022/06/18 05:49:40;;;;;;;7.70;5.00;;;;;;;;;;5129880;27;20507;-70
2022/06/18 05:52:07;;;;;;;6.07;5.07;;;;;;;;;;5115383;28;20532;-67
2022/06/18 05:54:35;;;;;;;9.63;5.47;;;;;;;;;;5115158;28;20523;-69
2022/06/18 05:57:02;;;;;;;7.87;5.20;;;;;;;;;;5115983;28;20446;-69
2022/06/18 05:59:31;;;;;;;7.93;4.40;;;;;;;;;;5115436;28;20865;-67
2022/06/18 06:01:58;;;;;;;7.73;5.23;;;;;;;;;;5115397;28;20516;-69
2022/06/18 06:04:26;;;;;;;6.37;5.60;;;;;;;;;;5115365;28;20443;-68
2022/06/18 06:06:53;;;;;;;11.00;5.77;;;;;;;;;;5115347;28;20442;-68
2022/06/18 06:12:01;;;;;;;5.47;4.90;;;;;;;;;;5114178;28;20552;-68
2022/06/18 06:14:29;;;;;;;8.23;5.27;;;;;;;;;;5115131;28;20522;-68
2022/06/18 06:16:58;;;;;;;6.10;4.77;;;;;;;;;;5114467;28;20535;-69
2022/06/18 06:19:25;;;;;;;5.63;4.83;;;;;;;;;;5115277;28;20792;-69
2022/06/18 06:21:52;;;;;;;7.03;4.50;;;;;;;;;;5114681;28;21064;-70
2022/06/18 06:24:19;;;;;;;7.47;6.10;;;;;;;;;;5115013;28;20440;-68
2022/06/18 06:26:47;;;;;;;9.70;5.20;;;;;;;;;;5114657;28;20439;-69
2022/06/18 06:29:14;;;;;;;10.47;4.50;;;;;;;;;;5114949;28;20468;-69
2022/06/18 06:31:41;;;;;;;10.00;5.83;;;;;;;;;;5114528;28;20825;-70
2022/06/18 06:34:10;;;;;;;10.33;5.73;;;;;;;;;;5114461;28;20500;-70
2022/06/18 06:36:37;;;;;;;5.90;5.30;;;;;;;;;;5114386;28;20443;-68
2022/06/18 06:39:04;;;;;;;9.30;5.83;;;;;;;;;;5114965;28;20448;-68
2022/06/18 06:41:32;;;;;;;10.33;5.57;;;;;;;;;;5113973;28;20961;-68
2022/06/18 06:43:59;;;;;;;8.80;5.87;;;;;;;;;;5114125;28;20446;-68
2022/06/18 06:46:26;;;;;;;7.43;6.00;;;;;;;;;;5110952;28;20531;-69
2022/06/18 06:48:53;;;;;;;7.63;5.30;;;;;;;;;;5114307;28;20507;-69
2022/06/18 06:51:23;;;;;;;7.53;5.67;;;;;;;;;;5134629;27;20443;-68
2022/06/18 06:53:51;;;;;;;10.70;5.50;;;;;;;;;;5134760;27;20443;-69
2022/06/18 06:59:04;;;;;;;9.47;5.53;;;;;;;;;;5134727;27;20411;-69
2022/06/18 07:01:31;;;;;;;7.73;5.40;;;;;;;;;;5134474;27;20570;-69
2022/06/18 07:03:59;;;;;;;5.70;5.17;;;;;;;;;;5134629;27;20432;-70
2022/06/18 07:06:27;;;;;;;6.60;5.67;;;;;;;;;;5133823;27;20476;-69
2022/06/18 07:08:55;;;;;;;11.97;6.03;;;;;;;;;;5134569;27;20524;-71
2022/06/18 07:11:22;;;;;;;11.57;6.80;;;;;;;;;;5134303;27;20443;-69
2022/06/18 07:13:49;;;;;;;5.23;4.70;;;;;;;;;;5134654;27;20438;-70
2022/06/18 07:16:17;;;;;;;10.83;5.30;;;;;;;;;;5100076;28;20445;-70
2022/06/18 07:18:44;;;;;;;11.40;6.00;;;;;;;;;;5093222;28;20513;-69
2022/06/18 07:21:13;;;;;;;6.67;5.83;;;;;;;;;;5093630;28;20481;-68
2022/06/18 07:23:42;;;;;;;7.67;5.13;;;;;;;;;;5093284;28;20446;-69
2022/06/18 07:26:09;;;;;;;8.40;5.60;;;;;;;;;;5092715;28;20473;-68
2022/06/18 07:28:37;;;;;;;6.20;5.30;;;;;;;;;;5092171;28;20439;-68
2022/06/18 07:31:04;;;;;;;8.90;5.50;;;;;;;;;;5092818;28;20541;-68
2022/06/18 07:33:33;;;;;;;10.03;6.57;;;;;;;;;;5093112;28;20474;-68
2022/06/18 07:36:00;;;;;;;14.00;6.43;;;;;;;;;;5093373;28;20461;-68
2022/06/18 07:38:28;;;;;;;12.90;5.90;;;;;;;;;;5093488;28;20450;-68
2022/06/18 07:40:56;;;;;;;7.80;5.90;;;;;;;;;;5092911;28;20448;-68
2022/06/18 07:43:29;;;;;;;14.60;5.20;;;;;;;;;;5093355;28;20454;-68
2022/06/18 07:45:56;;;;;;;11.43;5.60;;;;;;;;;;5092860;28;20421;-68
2022/06/18 07:48:24;;;;;;;11.20;4.60;;;;;;;;;;5092998;28;20529;-68
2022/06/18 07:50:51;;;;;;;7.90;5.70;;;;;;;;;;5108928;28;20536;-68
2022/06/18 07:53:20;;;;;;;10.10;5.73;;;;;;;;;;5113248;28;20413;-68
2022/06/18 07:55:47;;;;;;;11.00;5.83;;;;;;;;;;5113586;28;20813;-68
2022/06/18 07:58:16;;;;;;;10.00;5.90;;;;;;;;;;5113372;28;20439;-68
2022/06/18 08:00:44;;;;;;;7.00;5.30;;;;;;;;;;5113031;28;20477;-68
2022/06/18 08:03:12;;;;;;;12.00;5.87;;;;;;;;;;5113316;28;20414;-68
2022/06/18 08:05:40;;;;;;;8.53;6.00;;;;;;;;;;5113581;28;20439;-68
2022/06/18 08:08:07;;;;;;;6.13;4.77;;;;;;;;;;5113546;28;20538;-68
2022/06/18 08:10:36;;;;;;;12.10;6.10;;;;;;;;;;5113128;28;20439;-68
2022/06/18 08:13:04;;;;;;;6.73;5.33;;;;;;;;;;5112729;28;20439;-68
2022/06/18 08:15:33;;;;;;;5.73;4.97;;;;;;;;;;5113215;28;20860;-68
2022/06/18 08:18:00;;;;;;;10.93;6.10;;;;;;;;;;5113342;28;20437;-68
2022/06/18 08:20:28;;;;;;;8.20;5.50;;;;;;;;;;5113216;28;20449;-68
2022/06/18 08:22:57;;;;;;;6.90;6.03;;;;;;;;;;5112785;28;20449;-68
2022/06/18 08:25:26;;;;;;;7.07;6.07;;;;;;;;;;5113049;28;20418;-68
2022/06/18 08:27:55;;;;;;;9.90;5.73;;;;;;;;;;5113496;28;20417;-68
2022/06/18 08:30:22;;;;;;;9.10;5.87;;;;;;;;;;5113046;28;20470;-68
2022/06/18 08:32:51;;;;;;;9.20;7.00;;;;;;;;;;5113270;28;20409;-68
2022/06/18 08:35:18;;;;;;;7.23;4.97;;;;;;;;;;5113453;28;20446;-68
2022/06/18 08:37:46;;;;;;;15.23;6.33;;;;;;;;;;5113204;28;20539;-68
2022/06/18 08:40:37;;;;;;;12.10;5.40;;;;;;;;;;5114523;28;20823;-68
2022/06/18 08:43:11;;;;;;;10.97;6.30;;;;;;;;;;5116821;28;20411;-68
2022/06/18 08:45:41;;;;;;;11.00;6.33;;;;;;;;;;5116559;28;20523;-68
2022/06/18 08:48:22;;;;;;;13.40;5.67;;;;;;;;;;5117065;28;20449;-68
2022/06/18 08:50:53;;;;;;;7.70;5.40;;;;;;;;;;5116645;28;20523;-68
2022/06/18 08:53:38;;;;;;;8.17;5.70;;;;;;;;;;5116714;28;20442;-68
2022/06/18 08:56:07;;;;;;;7.50;5.80;;;;;;;;;;5103845;28;20531;-68
2022/06/18 08:58:37;;;;;;;8.63;5.10;;;;;;;;;;5116520;28;20415;-68
2022/06/18 09:01:06;;;;;;;8.40;5.93;;;;;;;;;;5117072;28;20570;-68
2022/06/18 09:03:41;;;;;;;8.40;5.17;;;;;;;;;;5116359;28;20451;-68
2022/06/18 09:06:22;;;;;;;10.07;5.50;;;;;;;;;;5116467;28;20426;-68
2022/06/18 09:08:54;;;;;;;9.93;5.80;;;;;;;;;;5116264;28;20518;-68
2022/06/18 09:11:33;;;;;;;6.90;5.50;;;;;;;;;;5116189;28;20531;-68
2022/06/18 09:14:02;;;;;;;9.00;5.77;;;;;;;;;;5116457;28;20429;-68
2022/06/18 09:16:33;;;;;;;17.43;6.40;;;;;;;;;;5116082;28;20444;-68
2022/06/18 09:19:03;;;;;;;9.23;6.67;;;;;;;;;;5116480;28;20436;-69
2022/06/18 09:21:34;;;;;;;22.53;7.43;;;;;;;;;;5116027;28;20982;-69
2022/06/18 09:24:04;;;;;;;6.73;5.83;;;;;;;;;;5116815;28;20486;-69
2022/06/18 09:26:35;;;;;;;8.17;5.53;;;;;;;;;;5116286;28;20443;-69
2022/06/18 09:29:07;;;;;;;6.83;5.17;;;;;;;;;;5115587;28;20409;-69
2022/06/18 09:31:37;;;;;;;6.37;5.83;;;;;;;;;;5115694;28;20410;-69
2022/06/18 09:34:09;;;;;;;5.80;5.30;;;;;;;;;;5115499;28;20415;-69
2022/06/18 09:36:39;;;;;;;8.20;5.60;;;;;;;;;;5115597;28;20486;-69
2022/06/18 09:39:10;;;;;;;11.50;5.20;;;;;;;;;;5115362;28;20891;-69
2022/06/18 09:41:42;;;;;;;7.77;5.33;;;;;;;;;;5116609;28;21008;-69
2022/06/18 09:44:12;;;;;;;8.00;5.80;;;;;;;;;;5115346;28;20494;-69
2022/06/18 09:46:43;;;;;;;7.87;6.17;;;;;;;;;;5115311;28;20493;-69
2022/06/18 09:49:12;;;;;;;7.20;5.50;;;;;;;;;;5114891;28;20945;-69
2022/06/18 09:51:42;;;;;;;11.70;6.10;;;;;;;;;;5114927;28;20500;-69
2022/06/18 09:54:12;;;;;;;13.83;5.70;;;;;;;;;;5115714;28;20861;-69
2022/06/18 09:56:43;;;;;;;18.77;7.13;;;;;;;;;;5115094;28;20459;-69
2022/06/18 09:59:13;;;;;;;10.33;5.60;;;;;;;;;;5115548;28;20501;-69
2022/06/18 10:01:45;;;;;;;9.17;6.50;;;;;;;;;;5115477;28;20823;-69
2022/06/18 10:07:00;;;;;;;9.47;5.90;;;;;;;;;;5115204;28;20375;-69
2022/06/18 10:09:32;;;;;;;11.50;5.60;;;;;;;;;;5115224;28;20416;-69
2022/06/18 10:12:00;;;;;;;10.00;6.23;;;;;;;;;;5115161;28;20446;-69
2022/06/18 10:14:27;;;;;;;8.10;5.20;;;;;;;;;;5114985;28;20544;-69
2022/06/18 10:17:02;;;;;;;12.10;6.17;;;;;;;;;;5115054;28;20552;-69
2022/06/18 10:19:33;;;;;;;9.00;5.20;;;;;;;;;;5115065;28;20518;-69
2022/06/18 10:22:04;;;;;;;10.13;5.03;;;;;;;;;;5114732;28;20538;-69
2022/06/18 10:24:36;;;;;;;5.10;4.60;;;;;;;;;;5114602;28;20904;-68
2022/06/18 10:27:07;;;;;;;8.37;5.20;;;;;;;;;;5115673;28;20436;-69
2022/06/18 10:29:37;;;;;;;11.03;5.77;;;;;;;;;;5114847;28;20420;-69
2022/06/18 10:32:11;;;;;;;5.53;5.00;;;;;;;;;;5115372;27;20884;-70
2022/06/18 10:34:48;;;;;;;10.70;6.43;;;;;;;;;;5134154;27;20518;-68
2022/06/18 10:37:19;;;;;;;10.20;6.30;;;;;;;;;;5134508;27;20516;-69
2022/06/18 10:39:50;;;;;;;8.53;5.33;;;;;;;;;;5134132;27;20483;-68
2022/06/18 10:42:26;;;;;;;8.77;5.60;;;;;;;;;;5134262;27;20566;-68
2022/06/18 10:45:01;;;;;;;12.53;5.50;;;;;;;;;;5134588;27;20522;-69
2022/06/18 10:47:32;;;;;;;6.27;5.30;;;;;;;;;;5134521;27;20472;-69
2022/06/18 10:50:05;;;;;;;7.30;5.53;;;;;;;;;;5125644;27;20807;-69
2022/06/18 10:52:33;;;;;;;10.20;6.27;;;;;;;;;;5114674;28;20769;-68
2022/06/18 10:55:07;;;;;;;6.60;5.53;;;;;;;;;;5113955;28;20517;-69
2022/06/18 10:57:34;;;;;;;7.23;6.00;;;;;;;;;;5113904;28;20446;-69
2022/06/18 11:00:09;;;;;;;7.10;5.43;;;;;;;;;;5113894;28;20443;-69
2022/06/18 11:02:37;;;;;;;6.33;5.63;;;;;;;;;;5107279;28;20494;-68
2022/06/18 11:05:15;;;;;;;7.83;5.60;;;;;;;;;;5093368;28;20476;-69
2022/06/18 11:07:47;;;;;;;14.17;5.90;;;;;;;;;;5093950;28;20456;-68
2022/06/18 11:10:24;;;;;;;13.23;5.33;;;;;;;;;;5093437;28;20437;-69
2022/06/18 11:12:53;;;;;;;9.73;7.03;;;;;;;;;;5094156;28;20416;-68
2022/06/18 11:15:25;;;;;;;12.90;6.57;;;;;;;;;;5093681;28;20467;-69
2022/06/18 11:17:53;;;;;;;11.37;5.67;;;;;;;;;;5093560;28;20520;-69
2022/06/18 11:20:23;;;;;;;8.20;5.33;;;;;;;;;;5093696;28;20536;-69
2022/06/18 11:22:52;;;;;;;8.67;5.63;;;;;;;;;;5093786;28;21062;-68
2022/06/18 11:25:23;;;;;;;7.40;5.03;;;;;;;;;;5093327;28;20929;-69
2022/06/18 11:27:51;;;;;;;11.13;5.40;;;;;;;;;;5093764;28;20853;-69
2022/06/18 11:30:19;;;;;;;8.33;5.17;;;;;;;;;;5106208;28;20953;-68
2022/06/18 11:32:48;;;;;;;10.33;5.70;;;;;;;;;;5113574;28;20451;-69
2022/06/18 11:35:20;;;;;;;13.03;5.80;;;;;;;;;;5113070;28;20443;-68
2022/06/18 11:37:57;;;;;;;7.17;5.63;;;;;;;;;;5113590;28;20760;-69
2022/06/18 11:40:25;;;;;;;11.33;6.23;;;;;;;;;;5113244;28;20845;-69
2022/06/18 11:42:54;;;;;;;6.30;5.40;;;;;;;;;;5113531;28;20847;-68
2022/06/18 11:45:37;;;;;;;10.93;6.43;;;;;;;;;;5113061;28;21002;-69
2022/06/18 11:48:07;;;;;;;9.00;5.27;;;;;;;;;;5114001;28;20526;-69
2022/06/18 11:50:35;;;;;;;9.27;5.37;;;;;;;;;;5113246;28;20465;-68
2022/06/18 11:53:08;;;;;;;9.00;5.40;;;;;;;;;;5113672;28;20833;-69
2022/06/18 11:55:36;;;;;;;13.97;6.80;;;;;;;;;;5112505;28;20946;-68
2022/06/18 11:58:08;;;;;;;12.53;5.67;;;;;;;;;;5113099;28;20533;-69
2022/06/18 12:00:42;;;;;;;8.67;5.43;;;;;;;;;;5094564;28;20906;-69
2022/06/18 12:03:15;;;;;;;8.50;5.40;;;;;;;;;;5092723;28;20468;-69
2022/06/18 12:05:44;;;;;;;11.03;5.77;;;;;;;;;;5092764;28;20423;-69
2022/06/18 12:08:16;;;;;;;9.83;5.90;;;;;;;;;;5092658;28;20477;-69
2022/06/18 12:10:47;;;;;;;9.70;5.20;;;;;;;;;;5092691;28;20426;-69
2022/06/18 12:13:20;;;;;;;12.00;5.57;;;;;;;;;;5093281;28;20432;-69
2022/06/18 12:15:50;;;;;;;9.77;5.90;;;;;;;;;;5094430;28;20536;-69
2022/06/18 12:18:21;;;;;;;11.73;5.40;;;;;;;;;;5096829;28;20509;-68
2022/06/18 12:20:54;;;;;;;10.50;5.30;;;;;;;;;;5096778;28;20428;-68
2022/06/18 12:23:26;;;;;;;12.83;5.33;;;;;;;;;;5096362;28;20467;-69
2022/06/18 12:25:57;;;;;;;10.73;7.90;;;;;;;;;;5096546;28;20850;-69
2022/06/18 12:28:28;;;;;;;10.20;5.67;;;;;;;;;;5096744;28;20421;-69
2022/06/18 12:30:57;;;;;;;13.00;6.13;;;;;;;;;;5096240;28;20533;-69
2022/06/18 12:33:28;;;;;;;7.77;5.47;;;;;;;;;;5096171;28;20447;-69
2022/06/18 12:36:00;;;;;;;13.97;5.30;;;;;;;;;;5095942;28;20526;-69
2022/06/18 12:38:31;;;;;;;17.00;6.00;;;;;;;;;;5096787;28;20427;-69
2022/06/18 12:41:03;;;;;;;8.50;5.60;;;;;;;;;;5096034;28;20493;-69
2022/06/18 12:43:34;;;;;;;13.13;6.10;;;;;;;;;;5096577;28;20472;-69
2022/06/18 12:46:03;;;;;;;10.73;4.97;;;;;;;;;;5096025;28;20483;-69
2022/06/18 12:48:36;;;;;;;6.60;5.63;;;;;;;;;;5096358;28;20447;-69
2022/06/18 12:51:07;;;;;;;9.17;5.50;;;;;;;;;;5114550;28;20553;-69
2022/06/18 12:53:49;;;;;;;8.50;6.27;;;;;;;;;;5117167;28;20847;-69
2022/06/18 12:56:25;;;;;;;10.60;6.17;;;;;;;;;;5099355;28;20465;-68
2022/06/18 12:58:55;;;;;;;11.97;5.40;;;;;;;;;;5116122;28;20519;-68
2022/06/18 13:01:28;;;;;;;13.33;6.90;;;;;;;;;;5116379;28;20944;-68
2022/06/18 13:04:13;;;;;;;9.27;5.70;;;;;;;;;;5116801;28;20466;-68
2022/06/18 13:06:44;;;;;;;6.60;5.23;;;;;;;;;;5116075;28;20456;-68
2022/06/18 13:09:16;;;;;;;9.40;5.37;;;;;;;;;;5115968;28;20468;-68
2022/06/18 13:11:52;;;;;;;12.20;6.13;;;;;;;;;;5116243;28;20463;-68
2022/06/18 13:14:26;;;;;;;12.63;6.47;;;;;;;;;;5116408;28;20432;-68
2022/06/18 13:16:55;;;;;;;12.73;8.20;;;;;;;;;;5115720;28;20433;-68
2022/06/18 13:19:27;;;;;;;11.77;5.43;;;;;;;;;;5115897;28;20479;-68
2022/06/18 13:21:55;;;;;;;9.83;5.50;;;;;;;;;;5115977;28;20420;-68
2022/06/18 13:29:59;;;;;;;9.20;5.13;;;;;;;;;;5115768;28;20479;-68
2022/06/18 13:32:29;;;;;;;16.27;8.40;;;;;;;;;;5115829;28;20474;-68
2022/06/18 13:34:59;;;;;;;10.83;5.23;;;;;;;;;;5115247;28;20422;-69
2022/06/18 13:37:29;;;;;;;14.00;7.00;;;;;;;;;;5115257;28;20928;-68
2022/06/18 13:40:01;;;;;;;11.40;5.17;;;;;;;;;;5115790;28;20474;-68
2022/06/18 13:42:36;;;;;;;11.93;5.43;;;;;;;;;;5115657;28;20462;-68
2022/06/18 13:45:16;;;;;;;12.30;5.90;;;;;;;;;;5115652;28;20878;-68
2022/06/18 13:47:48;;;;;;;16.00;7.13;;;;;;;;;;5115210;28;21034;-68
2022/06/18 13:50:19;;;;;;;10.87;6.97;;;;;;;;;;5115082;28;20508;-68
2022/06/18 13:52:47;;;;;;;14.57;6.20;;;;;;;;;;5115509;28;20430;-69
2022/06/18 13:55:16;;;;;;;12.10;5.37;;;;;;;;;;5115120;28;20438;-68
2022/06/18 13:57:47;;;;;;;14.57;6.10;;;;;;;;;;5115120;28;20976;-68
2022/06/18 14:00:20;;;;;;;11.23;6.47;;;;;;;;;;5115350;28;20947;-68
2022/06/18 14:02:55;;;;;;;16.13;5.53;;;;;;;;;;5114948;28;20512;-69
2022/06/18 14:05:23;;;;;;;8.43;5.20;;;;;;;;;;5115106;28;20422;-69
2022/06/18 14:07:52;;;;;;;12.73;7.80;;;;;;;;;;5114878;28;20530;-68
2022/06/18 14:10:22;;;;;;;13.33;5.40;;;;;;;;;;5115402;28;20981;-68
2022/06/18 14:12:52;;;;;;;15.50;7.47;;;;;;;;;;5114727;28;20446;-69
2022/06/18 14:15:21;;;;;;;25.30;7.07;;;;;;;;;;5114975;28;20434;-69
2022/06/18 14:17:50;;;;;;;12.30;6.50;;;;;;;;;;5115130;28;20475;-69
2022/06/18 14:20:22;;;;;;;12.53;5.60;;;;;;;;;;5114991;28;20436;-69
2022/06/18 14:22:58;;;;;;;9.97;6.53;;;;;;;;;;5114676;28;20901;-69
2022/06/18 14:25:25;;;;;;;11.00;5.63;;;;;;;;;;5115119;28;20459;-70
2022/06/18 14:27:54;;;;;;;8.90;7.00;;;;;;;;;;5114746;28;20520;-70
2022/06/18 14:30:23;;;;;;;11.10;5.77;;;;;;;;;;5114507;28;20432;-69
2022/06/18 14:32:53;;;;;;;15.30;6.70;;;;;;;;;;5114663;28;20473;-69
2022/06/18 14:35:26;;;;;;;9.33;5.63;;;;;;;;;;5114443;28;20466;-70
2022/06/18 14:37:54;;;;;;;16.63;8.97;;;;;;;;;;5114033;28;20474;-69
2022/06/18 14:40:23;;;;;;;13.43;6.33;;;;;;;;;;5114697;28;20443;-70
2022/06/18 14:43:05;;;;;;;8.80;5.90;;;;;;;;;;5114443;28;20930;-68
2022/06/18 14:45:38;;;;;;;13.40;5.80;;;;;;;;;;5111520;28;20448;-69
2022/06/18 14:48:18;;;;;;;15.83;6.60;;;;;;;;;;5114134;28;20544;-69
2022/06/18 14:50:57;;;;;;;9.10;5.83;;;;;;;;;;5114298;28;20469;-69
2022/06/18 14:53:39;;;;;;;14.40;5.50;;;;;;;;;;5114686;28;20434;-69
2022/06/18 14:56:12;;;;;;;16.97;5.33;;;;;;;;;;5111024;28;20453;-69
2022/06/18 14:58:50;;;;;;;11.77;6.30;;;;;;;;;;5114238;28;20835;-68
2022/06/18 15:01:27;;;;;;;8.30;5.17;;;;;;;;;;5114632;28;20424;-69
2022/06/18 15:03:57;;;;;;;11.90;6.17;;;;;;;;;;5113680;28;21045;-69
2022/06/18 15:06:25;;;;;;;11.80;5.80;;;;;;;;;;5114020;28;20436;-68
2022/06/18 15:08:54;;;;;;;22.07;7.00;;;;;;;;;;5113893;28;20874;-68
2022/06/18 15:11:22;;;;;;;10.10;6.43;;;;;;;;;;5124221;27;20467;-68
2022/06/18 15:13:50;;;;;;;8.33;5.70;;;;;;;;;;5134375;27;20531;-69